Time;durP1;ratioP1;P1;durP2;ratioP2;P2;SDS_P1;SDS_P2;PMS_P1;PMS_P2;Temp;Humidity;BMP_temperature;BMP_pressure;BME280_temperature;BME280_humidity;BME280_pressure;Samples;Min_cycle;Max_cycle;Signal;HPM_P1;HPM_P2
2024/03/20 00:02:16;;;;;;;8.77;5.95;;;;;;;10.43;58.17;98939.16;4942401;28;20031;-79
2024/03/20 00:04:42;;;;;;;7.05;4.93;;;;;;;10.47;58.07;98933.63;4942140;28;20410;-79
2024/03/20 00:07:07;;;;;;;10.23;6.45;;;;;;;10.48;57.86;98937.03;4958551;28;20035;-80
2024/03/20 00:09:33;;;;;;;8.00;5.85;;;;;;;10.45;57.72;98924.22;4942351;28;20034;-79
2024/03/20 00:11:58;;;;;;;7.95;5.47;;;;;;;10.50;57.24;98929.97;4942332;28;20049;-82
2024/03/20 00:14:24;;;;;;;10.18;5.97;;;;;;;10.44;56.95;98925.19;4958382;28;20027;-81
2024/03/20 00:16:50;;;;;;;8.73;5.70;;;;;;;10.50;56.69;98937.78;4942143;28;20490;-81
2024/03/20 00:19:15;;;;;;;9.70;6.00;;;;;;;10.50;56.70;98940.41;4958130;28;20047;-81
2024/03/20 00:21:40;;;;;;;9.50;6.43;;;;;;;10.42;56.53;98916.63;4958289;28;20034;-80
2024/03/20 00:24:06;;;;;;;9.15;6.20;;;;;;;10.47;56.55;98924.97;4942426;28;20450;-81
2024/03/20 00:26:31;;;;;;;10.80;6.20;;;;;;;10.50;55.97;98930.78;4926103;28;20035;-81
2024/03/20 00:28:57;;;;;;;8.48;5.85;;;;;;;10.45;55.81;98916.38;4958083;28;20556;-81
2024/03/20 00:31:22;;;;;;;8.77;6.57;;;;;;;10.48;55.54;98913.56;4958358;28;20034;-75
2024/03/20 00:33:48;;;;;;;9.77;5.93;;;;;;;10.50;55.25;98914.31;4941236;28;20403;-76
2024/03/20 00:36:35;;;;;;;9.25;6.25;;;;;;;10.49;55.21;98904.78;4958198;28;20113;-76
2024/03/20 00:39:01;;;;;;;8.80;5.15;;;;;;;10.47;54.75;98906.69;4957629;28;20513;-81
2024/03/20 00:41:26;;;;;;;9.32;5.75;;;;;;;10.40;54.26;98900.25;4926021;28;20034;-82
2024/03/20 00:43:51;;;;;;;9.70;5.25;;;;;;;10.40;54.08;98897.63;4975118;28;20086;-81
2024/03/20 00:46:17;;;;;;;8.20;5.20;;;;;;;10.34;53.72;98879.81;4941997;28;20510;-81
2024/03/20 00:48:42;;;;;;;10.05;5.07;;;;;;;10.37;53.52;98884.81;4941109;28;20058;-81
2024/03/20 00:51:08;;;;;;;7.07;4.82;;;;;;;10.26;53.07;98877.72;4975172;28;20410;-81
2024/03/20 00:53:33;;;;;;;8.05;4.88;;;;;;;10.31;53.06;98880.84;4941679;28;20053;-82
2024/03/20 00:55:59;;;;;;;7.15;4.88;;;;;;;10.27;52.56;98876.78;4925177;28;20133;-80
2024/03/20 00:58:24;;;;;;;8.63;4.75;;;;;;;10.27;52.28;98877.63;4942332;28;20035;-81
2024/03/20 01:00:50;;;;;;;7.00;4.70;;;;;;;10.23;51.89;98883.16;4958206;28;20034;-81
2024/03/20 01:03:16;;;;;;;5.85;4.30;;;;;;;10.22;51.49;98889.34;4942431;28;20027;-82
2024/03/20 01:05:41;;;;;;;7.15;4.47;;;;;;;10.23;50.37;98902.28;4957887;28;20033;-81
2024/03/20 01:08:07;;;;;;;7.43;4.38;;;;;;;10.22;50.58;98897.19;4958101;28;20034;-80
2024/03/20 01:10:33;;;;;;;5.95;4.28;;;;;;;10.23;50.54;98902.28;4928300;28;20035;-81
2024/03/20 01:12:58;;;;;;;4.70;3.55;;;;;;;10.21;50.17;98914.59;4941907;28;20045;-81
2024/03/20 01:15:24;;;;;;;7.22;4.80;;;;;;;10.20;50.42;98917.31;4957607;28;20023;-81
2024/03/20 01:17:49;;;;;;;7.07;4.50;;;;;;;10.18;50.10;98912.19;4942668;28;20177;-81
2024/03/20 01:20:15;;;;;;;7.47;4.85;;;;;;;10.18;49.39;98919.19;4943727;28;20050;-82
2024/03/20 01:22:40;;;;;;;7.95;4.70;;;;;;;10.17;49.39;98928.81;4925556;28;20471;-81
2024/03/20 01:25:07;;;;;;;6.47;4.70;;;;;;;10.06;49.17;98920.91;4940618;28;20090;-81
2024/03/20 01:27:32;;;;;;;7.95;5.18;;;;;;;10.05;49.09;98922.69;4941261;28;20414;-81
2024/03/20 01:29:59;;;;;;;8.50;4.70;;;;;;;10.02;48.99;98920.28;4957533;28;20023;-81
2024/03/20 01:32:24;;;;;;;7.60;4.72;;;;;;;10.02;49.39;98903.81;4941057;28;20065;-80
2024/03/20 01:34:50;;;;;;;8.32;5.15;;;;;;;10.01;49.34;98908.22;4941095;28;20403;-80
2024/03/20 01:37:15;;;;;;;8.95;5.32;;;;;;;10.06;49.66;98919.13;4925223;28;20035;-80
2024/03/20 01:39:42;;;;;;;7.78;5.18;;;;;;;10.06;50.13;98924.34;4941050;28;20078;-80
2024/03/20 01:42:07;;;;;;;10.77;5.40;;;;;;;10.05;49.83;98924.47;4941322;28;20566;-80
2024/03/20 01:44:33;;;;;;;7.05;4.82;;;;;;;10.00;50.08;98914.34;4925031;28;20018;-80
2024/03/20 01:46:59;;;;;;;8.63;5.45;;;;;;;10.02;49.90;98924.69;4924753;28;20050;-80
2024/03/20 01:49:25;;;;;;;9.75;5.50;;;;;;;9.98;50.09;98931.03;4924982;28;20042;-80
2024/03/20 01:51:50;;;;;;;8.57;5.78;;;;;;;9.93;50.30;98928.75;4957051;28;20035;-80
2024/03/20 01:54:16;;;;;;;9.35;6.00;;;;;;;9.87;50.48;98932.66;4940652;28;20474;-81
2024/03/20 01:56:42;;;;;;;8.90;5.97;;;;;;;9.83;50.91;98928.56;4940719;28;20492;-81
2024/03/20 01:59:09;;;;;;;10.13;5.97;;;;;;;9.72;50.99;98918.06;4940771;28;20031;-81
2024/03/20 02:01:34;;;;;;;9.85;5.90;;;;;;;9.70;51.04;98922.56;4940430;28;20035;-81
2024/03/20 02:04:00;;;;;;;10.20;6.35;;;;;;;9.64;51.26;98928.19;4940662;28;20031;-81
2024/03/20 02:06:27;;;;;;;9.07;5.45;;;;;;;9.57;51.55;98923.41;4940835;28;20037;-81
2024/03/20 02:08:54;;;;;;;7.50;5.15;;;;;;;9.55;51.50;98924.44;4940718;28;20065;-81
2024/03/20 02:11:20;;;;;;;8.38;5.53;;;;;;;9.48;51.62;98924.03;4924644;28;20043;-80
2024/03/20 02:13:46;;;;;;;9.82;5.25;;;;;;;9.50;51.70;98931.75;4940276;28;20418;-80
2024/03/20 02:16:15;;;;;;;7.75;5.10;;;;;;;9.42;51.79;98929.66;4927054;28;20150;-81
2024/03/20 02:18:41;;;;;;;9.95;4.90;;;;;;;9.44;51.76;98942.59;4960157;28;20492;-81
2024/03/20 02:21:10;;;;;;;8.38;4.80;;;;;;;9.36;51.93;98936.16;4959552;28;20036;-81
2024/03/20 02:23:36;;;;;;;7.97;5.10;;;;;;;9.33;51.98;98941.56;4959522;28;20023;-81
2024/03/20 02:26:05;;;;;;;7.18;4.93;;;;;;;9.24;52.12;98927.38;4943446;28;20054;-82
2024/03/20 02:28:34;;;;;;;7.70;5.18;;;;;;;9.14;52.23;98912.47;4960331;28;20037;-81
2024/03/20 02:31:01;;;;;;;7.85;4.60;;;;;;;9.22;52.27;98934.47;4959617;28;20026;-81
2024/03/20 02:33:27;;;;;;;12.02;5.10;;;;;;;9.21;52.39;98947.59;4959970;28;20397;-81
2024/03/20 02:35:53;;;;;;;7.03;4.43;;;;;;;9.15;51.95;98943.63;4959048;28;20038;-81
2024/03/20 02:38:28;;;;;;;6.47;4.40;;;;;;;9.16;52.34;98949.69;4959808;28;20474;-80
2024/03/20 02:40:56;;;;;;;6.80;4.32;;;;;;;9.13;52.49;98944.69;4960805;28;20026;-79
2024/03/20 02:43:24;;;;;;;8.32;4.15;;;;;;;9.03;52.59;98944.47;4975887;28;20116;-79
2024/03/20 02:45:53;;;;;;;;;;;;;;;9.07;52.38;98951.13;4960607;28;20481;-79
2024/03/20 02:48:18;;;;;;;8.20;3.88;;;;;;;8.97;52.46;98952.69;4991496;28;20073;-79
2024/03/20 02:50:44;;;;;;;6.88;3.95;;;;;;;8.92;52.80;98942.56;4958862;28;20088;-80
2024/03/20 02:53:10;;;;;;;5.70;4.13;;;;;;;8.85;52.58;98939.50;4960164;28;20042;-80
2024/03/20 02:55:37;;;;;;;6.30;3.67;;;;;;;8.83;52.71;98949.19;4958683;28;20485;-80
2024/03/20 02:58:03;;;;;;;5.10;3.67;;;;;;;8.82;52.63;98959.72;4942807;28;20041;-81
2024/03/20 03:00:28;;;;;;;7.72;4.28;;;;;;;8.76;52.62;98947.94;4958787;28;20043;-81
2024/03/20 03:02:54;;;;;;;6.05;3.80;;;;;;;8.74;52.46;98959.38;4959188;28;20117;-80
2024/03/20 03:05:21;;;;;;;6.22;4.35;;;;;;;8.77;52.49;98973.03;4959121;28;20022;-80
2024/03/20 03:07:47;;;;;;;6.72;4.05;;;;;;;8.68;52.49;98971.88;4943662;28;20022;-81
2024/03/20 03:10:15;;;;;;;6.22;3.92;;;;;;;8.68;52.47;98982.28;4975353;28;20030;-81
2024/03/20 03:12:41;;;;;;;7.93;3.27;;;;;;;8.69;52.53;98989.13;4958021;28;20497;-81
2024/03/20 03:15:07;;;;;;;7.25;4.30;;;;;;;8.61;52.55;98980.16;4962087;28;20778;-81
2024/03/20 03:17:32;;;;;;;5.50;3.72;;;;;;;8.60;52.51;98994.97;4962276;28;20031;-81
2024/03/20 03:19:58;;;;;;;5.60;3.83;;;;;;;8.58;52.63;98998.59;4959689;28;20045;-81
2024/03/20 03:22:23;;;;;;;6.25;3.90;;;;;;;8.57;52.49;98996.91;4959260;28;20030;-81
2024/03/20 03:24:49;;;;;;;7.72;4.00;;;;;;;8.48;52.28;98988.75;4962452;28;20031;-82
2024/03/20 03:27:14;;;;;;;6.38;3.50;;;;;;;8.47;52.36;98997.47;4961492;28;20034;-81
2024/03/20 03:29:40;;;;;;;5.65;3.90;;;;;;;8.48;52.66;99000.94;4958417;28;20105;-81
2024/03/20 03:32:06;;;;;;;5.80;3.72;;;;;;;8.40;52.58;98995.34;4958287;28;20034;-82
2024/03/20 03:34:32;;;;;;;6.55;3.72;;;;;;;8.40;52.52;99010.97;4958865;28;20109;-81
2024/03/20 03:36:58;;;;;;;6.13;3.65;;;;;;;8.36;52.10;99004.28;4960566;28;20026;-79
2024/03/20 03:39:24;;;;;;;5.65;3.40;;;;;;;8.34;52.16;99007.78;4962318;28;20475;-79
2024/03/20 03:41:49;;;;;;;5.05;3.40;;;;;;;8.32;52.71;99016.66;4978579;28;20030;-80
2024/03/20 03:44:15;;;;;;;7.28;3.30;;;;;;;8.24;52.33;99005.88;4962369;28;20121;-79
2024/03/20 03:46:41;;;;;;;6.07;3.60;;;;;;;8.20;52.77;99007.81;4961784;28;20069;-81
2024/03/20 03:49:06;;;;;;;9.70;4.00;;;;;;;8.19;52.52;99013.13;4977832;28;20137;-79
2024/03/20 03:51:33;;;;;;;6.55;3.72;;;;;;;8.23;52.44;99014.63;4977681;28;20038;-79
2024/03/20 03:53:58;;;;;;;5.28;3.20;;;;;;;8.19;52.14;99013.97;4995635;28;20041;-78
2024/03/20 03:56:24;;;;;;;7.28;3.10;;;;;;;8.20;51.98;99017.41;4978228;28;20144;-80
2024/03/20 03:58:52;;;;;;;6.60;3.50;;;;;;;8.11;52.21;99013.59;4961631;28;20125;-82
2024/03/20 04:01:17;;;;;;;4.85;3.40;;;;;;;8.14;52.32;99029.00;4977680;28;20055;-80
2024/03/20 04:03:43;;;;;;;6.43;3.60;;;;;;;8.10;52.29;99033.56;4978372;28;20114;-81
2024/03/20 04:06:08;;;;;;;4.57;3.40;;;;;;;8.08;52.07;99031.97;4977923;28;20478;-80
2024/03/20 04:08:34;;;;;;;5.65;3.33;;;;;;;8.06;52.31;99039.03;4993850;28;20034;-83
2024/03/20 04:10:59;;;;;;;5.43;3.72;;;;;;;8.01;52.25;99033.31;4977569;28;20054;-82
2024/03/20 04:13:25;;;;;;;5.28;3.47;;;;;;;7.98;52.42;99039.50;4993871;28;20061;-80
2024/03/20 04:15:52;;;;;;;5.30;3.35;;;;;;;7.96;52.57;99051.78;4993789;28;20034;-82
2024/03/20 04:18:18;;;;;;;4.10;2.83;;;;;;;7.94;52.12;99044.06;4977159;28;20567;-81
2024/03/20 04:20:44;;;;;;;5.43;2.85;;;;;;;7.89;52.47;99038.31;4961073;28;20026;-82
2024/03/20 04:23:10;;;;;;;4.85;3.08;;;;;;;7.91;52.28;99044.25;4976996;28;20042;-81
2024/03/20 04:25:35;;;;;;;5.65;2.97;;;;;;;7.87;52.28;99040.16;4993660;28;20113;-80
2024/03/20 04:28:01;;;;;;;5.30;3.30;;;;;;;7.86;51.84;99050.63;4993873;28;20069;-79
2024/03/20 04:30:26;;;;;;;6.43;3.38;;;;;;;7.90;52.39;99054.75;4976484;28;20031;-80
2024/03/20 04:32:52;;;;;;;5.50;3.00;;;;;;;7.86;52.10;99053.25;4977401;28;20049;-81
2024/03/20 04:35:18;;;;;;;6.13;3.38;;;;;;;7.86;52.00;99056.69;4994293;28;20029;-81
2024/03/20 04:37:44;;;;;;;8.55;4.60;;;;;;;7.92;52.00;99045.06;4993844;28;20038;-80
2024/03/20 04:40:09;;;;;;;10.15;6.13;;;;;;;8.00;51.69;99053.28;4993569;28;20030;-80
2024/03/20 04:42:36;;;;;;;16.42;7.82;;;;;;;8.14;51.22;99063.66;4993449;28;20414;-81
2024/03/20 04:45:01;;;;;;;18.38;10.65;;;;;;;8.34;50.50;99064.19;4970763;28;20077;-79
2024/03/20 04:47:27;;;;;;;19.83;11.13;;;;;;;8.43;50.80;99074.06;4944395;28;20055;-81
2024/03/20 04:49:52;;;;;;;21.42;12.20;;;;;;;8.57;50.40;99072.34;4977126;28;20453;-84
2024/03/20 04:52:18;;;;;;;25.27;13.10;;;;;;;9.00;53.07;99075.69;4945389;28;20062;-83
2024/03/20 04:54:44;;;;;;;26.30;6.53;;;;;;;9.92;71.33;99078.34;4961542;28;20405;-80
2024/03/20 04:57:09;;;;;;;11.77;6.15;;;;;;;11.22;56.61;99081.34;4977300;28;20496;-78
2024/03/20 04:59:35;;;;;;;10.70;6.20;;;;;;;12.39;50.56;99081.38;4960539;28;20116;-77
2024/03/20 05:02:02;;;;;;;11.85;7.35;;;;;;;13.36;47.18;99082.34;4960760;28;20524;-76
2024/03/20 05:04:29;;;;;;;13.15;7.78;;;;;;;14.35;49.16;99083.72;4962881;28;20045;-83
2024/03/20 05:06:55;;;;;;;15.88;9.68;;;;;;;15.37;55.13;99079.06;4967372;28;20034;-77
2024/03/20 05:09:21;;;;;;;14.52;8.82;;;;;;;16.54;48.64;99082.34;4976847;28;20106;-79
2024/03/20 05:11:47;;;;;;;14.20;8.55;;;;;;;17.23;43.02;99085.41;4960051;28;20034;-78
2024/03/20 05:14:12;;;;;;;17.83;11.38;;;;;;;17.75;40.27;99082.03;4960002;28;20111;-77
2024/03/20 05:16:38;;;;;;;13.27;8.63;;;;;;;18.30;37.54;99083.53;4960084;28;20122;-77
2024/03/20 05:19:04;;;;;;;13.82;8.68;;;;;;;19.11;39.34;99087.41;4976921;28;20130;-78
2024/03/20 05:21:29;;;;;;;11.00;7.45;;;;;;;19.84;39.51;99080.47;4997483;28;20117;-81
2024/03/20 05:23:55;;;;;;;13.15;6.75;;;;;;;20.42;35.73;99067.88;4976028;28;20541;-76
2024/03/20 05:26:20;;;;;;;8.52;5.65;;;;;;;20.87;32.92;99076.13;4975985;28;20046;-79
2024/03/20 05:28:47;;;;;;;7.93;5.20;;;;;;;21.30;31.64;99081.81;4997397;28;20034;-77
2024/03/20 05:31:25;;;;;;;7.43;4.85;;;;;;;21.72;30.54;99079.66;4983394;28;20062;-77
2024/03/20 05:33:50;;;;;;;7.20;4.43;;;;;;;22.14;29.29;99076.41;4986884;28;20022;-78
2024/03/20 05:36:16;;;;;;;6.65;4.38;;;;;;;22.48;28.06;99083.00;4970734;28;20030;-78
2024/03/20 05:38:43;;;;;;;7.93;4.80;;;;;;;22.83;27.29;99085.88;5003245;28;20497;-78
2024/03/20 05:41:08;;;;;;;6.85;4.05;;;;;;;23.20;26.75;99088.53;4981813;28;20133;-77
2024/03/20 05:43:34;;;;;;;5.63;3.67;;;;;;;23.56;25.75;99096.44;4962137;28;20065;-78
2024/03/20 05:45:59;;;;;;;9.35;4.10;;;;;;;23.87;24.14;99089.94;4960245;28;20472;-78
2024/03/20 05:48:25;;;;;;;6.00;3.30;;;;;;;24.13;23.47;99088.44;4976691;28;20053;-78
2024/03/20 05:50:50;;;;;;;5.55;3.80;;;;;;;24.44;22.99;99093.31;4960467;28;20485;-77
2024/03/20 05:53:16;;;;;;;5.63;3.85;;;;;;;24.72;23.12;99085.25;4993889;28;20497;-78
2024/03/20 05:55:42;;;;;;;8.60;4.88;;;;;;;24.98;22.51;99085.53;4993663;28;20022;-81
2024/03/20 05:58:07;;;;;;;8.25;5.55;;;;;;;25.20;22.45;99084.34;4976194;28;20124;-86
2024/03/20 06:00:33;;;;;;;7.68;5.45;;;;;;;25.42;21.61;99092.22;4960307;28;20035;-80
2024/03/20 06:02:58;;;;;;;7.80;5.35;;;;;;;25.63;21.48;99094.69;4993510;28;20418;-81
2024/03/20 06:05:27;;;;;;;7.18;4.97;;;;;;;25.85;20.65;99104.31;4959875;28;20041;-82
2024/03/20 06:07:55;;;;;;;6.60;4.10;;;;;;;25.96;21.36;99090.31;4959813;28;20042;-82
2024/03/20 06:10:21;;;;;;;4.82;3.55;;;;;;;26.19;20.96;99092.56;4961256;28;20030;-81
2024/03/20 06:12:47;;;;;;;5.45;4.10;;;;;;;26.43;20.79;99100.94;4960369;28;20026;-79
2024/03/20 06:15:13;;;;;;;5.93;4.22;;;;;;;26.59;20.17;99100.44;4960277;28;20070;-82
2024/03/20 06:17:40;;;;;;;5.25;3.70;;;;;;;26.79;20.16;99100.41;4962573;28;20121;-91
2024/03/20 06:20:06;;;;;;;6.22;3.92;;;;;;;26.97;20.09;99101.53;4967100;28;20031;-87
2024/03/20 06:22:33;;;;;;;5.88;4.30;;;;;;;27.20;19.81;99101.81;4978668;28;20034;-86
2024/03/20 06:24:59;;;;;;;6.25;3.78;;;;;;;27.35;19.72;99092.66;4945730;28;20113;-87
2024/03/20 06:27:26;;;;;;;6.18;3.72;;;;;;;27.47;19.71;99098.97;4977359;28;20437;-85
2024/03/20 06:29:51;;;;;;;7.13;3.75;;;;;;;27.66;19.07;99109.72;4960476;28;20049;-85
2024/03/20 06:32:18;;;;;;;7.22;4.45;;;;;;;27.80;18.89;99104.03;4995151;28;20037;-86
2024/03/20 06:34:44;;;;;;;6.50;3.55;;;;;;;27.94;18.90;99106.59;4976824;28;20049;-85
2024/03/20 06:37:10;;;;;;;4.55;3.13;;;;;;;28.08;18.98;99107.31;4959994;28;20133;-84
2024/03/20 06:39:37;;;;;;;7.88;3.67;;;;;;;28.22;18.39;99110.69;4993491;28;20434;-83
2024/03/20 06:42:10;;;;;;;6.72;3.40;;;;;;;28.24;18.08;99093.28;4976644;28;20405;-82
2024/03/20 06:44:35;;;;;;;4.43;2.95;;;;;;;28.50;18.16;99107.47;4993555;28;20034;-81
2024/03/20 06:47:01;;;;;;;4.63;3.15;;;;;;;28.66;17.78;99120.31;4959482;28;20461;-82
2024/03/20 06:49:27;;;;;;;4.50;2.90;;;;;;;28.76;17.78;99124.31;4959392;28;20041;-81
2024/03/20 06:51:53;;;;;;;4.70;2.97;;;;;;;28.86;17.64;99125.44;4959416;28;20034;-82
2024/03/20 06:54:20;;;;;;;4.75;3.10;;;;;;;29.03;17.30;99127.47;4958793;28;20053;-82
2024/03/20 06:56:48;;;;;;;5.95;3.08;;;;;;;29.19;17.48;99132.25;4944164;28;20042;-80
2024/03/20 06:59:16;;;;;;;4.03;2.55;;;;;;;29.33;17.22;99138.22;4944249;28;20093;-82
2024/03/20 07:01:42;;;;;;;4.88;3.15;;;;;;;29.50;17.22;99135.69;4959501;28;20042;-82
2024/03/20 07:04:08;;;;;;;4.80;3.00;;;;;;;29.67;17.15;99145.78;4959202;28;20097;-81
2024/03/20 07:06:33;;;;;;;3.88;2.70;;;;;;;29.88;16.91;99144.44;4959280;28;20064;-80
2024/03/20 07:08:59;;;;;;;4.47;2.97;;;;;;;30.03;16.70;99134.03;4959255;28;20030;-81
2024/03/20 07:11:27;;;;;;;5.82;3.00;;;;;;;30.26;16.22;99143.94;4960716;28;20041;-82
2024/03/20 07:13:54;;;;;;;6.13;3.08;;;;;;;30.48;16.38;99141.47;4979695;28;20038;-83
2024/03/20 07:16:19;;;;;;;3.55;2.75;;;;;;;30.67;16.04;99138.63;4962978;28;20556;-81
2024/03/20 07:18:45;;;;;;;4.32;3.17;;;;;;;30.87;15.95;99137.38;4963331;28;20042;-82
2024/03/20 07:21:11;;;;;;;4.50;2.72;;;;;;;31.11;15.73;99130.06;4963070;28;20046;-84
2024/03/20 07:23:36;;;;;;;5.07;2.35;;;;;;;31.39;15.39;99142.66;4962808;28;20042;-80
2024/03/20 07:26:02;;;;;;;3.42;2.60;;;;;;;31.76;15.53;99139.53;4998138;28;20030;-79
2024/03/20 07:28:27;;;;;;;4.45;2.67;;;;;;;32.13;15.30;99141.69;4996995;28;20496;-79
2024/03/20 07:30:52;;;;;;;3.72;2.45;;;;;;;32.50;14.97;99129.47;4978890;28;20054;-80
2024/03/20 07:33:18;;;;;;;3.15;2.50;;;;;;;32.95;15.04;99141.91;4979204;28;20049;-81
2024/03/20 07:35:46;;;;;;;4.82;2.40;;;;;;;33.42;14.53;99133.19;4996689;28;20030;-81
2024/03/20 07:38:13;;;;;;;3.03;2.20;;;;;;;34.00;14.06;99138.81;4962606;28;20440;-81
2024/03/20 07:40:39;;;;;;;3.75;2.03;;;;;;;34.74;13.60;99147.88;4963197;28;20061;-80
2024/03/20 07:43:06;;;;;;;3.20;2.10;;;;;;;35.55;12.78;99148.28;4995889;28;20477;-81
2024/03/20 07:45:33;;;;;;;2.93;2.10;;;;;;;36.45;12.12;99146.78;4977649;28;20038;-81
2024/03/20 07:47:59;;;;;;;;;;;;;;;37.14;11.68;99157.88;4962941;28;20058;-82
2024/03/20 07:50:24;;;;;;;3.80;2.20;;;;;;;37.88;11.35;99157.88;4994562;28;19913;-81
2024/03/20 07:52:50;;;;;;;4.60;1.70;;;;;;;38.68;10.59;99151.00;4977898;28;20030;-83
2024/03/20 07:55:15;;;;;;;3.40;1.83;;;;;;;39.59;9.74;99154.59;4962246;28;20389;-80
2024/03/20 07:57:41;;;;;;;3.03;1.97;;;;;;;40.16;9.17;99160.66;4962090;28;20398;-80
2024/03/20 08:00:15;;;;;;;4.23;1.93;;;;;;;40.44;9.02;99148.97;4961289;28;20046;-83
2024/03/20 08:02:41;;;;;;;2.67;1.70;;;;;;;40.05;9.31;99167.44;4962700;28;20042;-82
2024/03/20 08:05:07;;;;;;;3.20;1.80;;;;;;;39.07;9.90;99162.72;4962056;28;20452;-81
2024/03/20 08:07:33;;;;;;;3.15;1.90;;;;;;;37.95;10.62;99162.97;4945084;28;20345;-81
2024/03/20 08:09:58;;;;;;;2.65;1.85;;;;;;;36.87;11.48;99148.25;4961739;28;20051;-81
2024/03/20 08:12:24;;;;;;;7.60;2.28;;;;;;;36.10;11.61;99150.41;4995476;28;20041;-81
2024/03/20 08:14:51;;;;;;;3.13;2.22;;;;;;;35.62;11.80;99156.16;4977359;28;20500;-81
2024/03/20 08:17:18;;;;;;;;;;;;;;;35.14;12.26;99140.91;4946916;28;20037;-81
2024/03/20 08:19:44;;;;;;;7.53;2.03;;;;;;;34.93;12.40;99142.78;4978059;28;19909;-82
2024/03/20 08:22:09;;;;;;;3.30;2.10;;;;;;;34.70;12.59;99149.44;4977388;28;20042;-82
2024/03/20 08:24:35;;;;;;;3.10;2.13;;;;;;;34.42;12.42;99143.38;4977099;28;20030;-80
2024/03/20 08:27:00;;;;;;;3.40;1.98;;;;;;;34.18;12.81;99153.78;4961978;28;20045;-81
2024/03/20 08:29:26;;;;;;;4.72;1.98;;;;;;;34.05;13.10;99149.66;4961710;28;20247;-82
2024/03/20 08:31:51;;;;;;;3.42;1.98;;;;;;;33.94;13.09;99141.72;4961748;28;20034;-81
2024/03/20 08:34:18;;;;;;;6.15;2.20;;;;;;;33.88;13.08;99146.31;4961694;28;20034;-81
2024/03/20 08:36:44;;;;;;;6.07;2.10;;;;;;;33.83;12.99;99155.19;4977459;28;20046;-81
2024/03/20 08:39:22;;;;;;;2.53;1.80;;;;;;;33.81;12.94;99145.69;4961725;28;20037;-87
2024/03/20 08:41:47;;;;;;;;;;;;;;;33.69;13.12;99146.66;4964102;28;20472;-83
2024/03/20 08:44:13;;;;;;;4.97;1.95;;;;;;;33.68;12.77;99145.06;4994036;28;19952;-81
2024/03/20 08:46:41;;;;;;;3.53;1.95;;;;;;;33.61;13.16;99135.53;4961744;28;20030;-81
2024/03/20 08:49:08;;;;;;;3.10;2.00;;;;;;;33.61;13.12;99147.16;4962240;28;20112;-81
2024/03/20 08:51:37;;;;;;;2.65;1.80;;;;;;;33.58;12.93;99144.16;4945458;28;20033;-81
2024/03/20 08:54:02;;;;;;;2.70;1.75;;;;;;;33.57;13.09;99137.91;4961308;28;20046;-83
2024/03/20 08:56:28;;;;;;;2.97;2.17;;;;;;;33.57;12.74;99128.97;4961417;28;20558;-82
2024/03/20 08:58:54;;;;;;;2.30;1.80;;;;;;;33.57;12.44;99139.81;4961458;28;20045;-81
2024/03/20 09:01:20;;;;;;;2.15;1.70;;;;;;;33.13;12.73;99140.75;4961409;28;20023;-83
2024/03/20 09:03:46;;;;;;;2.60;1.75;;;;;;;32.26;13.10;99135.13;4961460;28;20382;-80
2024/03/20 09:06:11;;;;;;;3.50;2.05;;;;;;;31.49;13.25;99145.53;4961690;28;20034;-82
2024/03/20 09:08:37;;;;;;;2.67;1.88;;;;;;;31.86;12.68;99136.16;4961246;28;20030;-81
2024/03/20 09:11:06;;;;;;;4.88;2.00;;;;;;;31.57;13.45;99130.84;4961071;28;20027;-83
2024/03/20 09:13:33;;;;;;;4.10;2.30;;;;;;;31.41;13.63;99134.31;4976789;28;20417;-80
2024/03/20 09:15:58;;;;;;;3.53;2.30;;;;;;;30.92;14.12;99132.09;4961493;28;20019;-82
2024/03/20 09:18:24;;;;;;;3.53;2.20;;;;;;;31.29;13.58;99134.41;4961008;28;20065;-83
2024/03/20 09:20:53;;;;;;;3.08;2.08;;;;;;;31.33;13.90;99127.47;4961196;28;20034;-82
2024/03/20 09:23:21;;;;;;;3.38;2.25;;;;;;;31.29;13.89;99132.50;4961082;28;20181;-80
2024/03/20 09:25:47;;;;;;;2.60;1.80;;;;;;;31.25;13.66;99144.03;4961504;28;20394;-81
2024/03/20 09:28:12;;;;;;;2.72;2.00;;;;;;;30.98;13.77;99150.84;4960261;28;20038;-81
2024/03/20 09:30:38;;;;;;;3.95;2.20;;;;;;;30.92;14.19;99146.38;4977521;28;20034;-82
2024/03/20 09:33:04;;;;;;;4.40;2.00;;;;;;;30.80;14.17;99146.41;4959871;28;20425;-83
2024/03/20 09:35:30;;;;;;;3.13;1.80;;;;;;;31.09;13.68;99138.38;4944002;28;20034;-81
2024/03/20 09:37:55;;;;;;;3.85;1.88;;;;;;;31.15;14.07;99137.41;4960238;28;20030;-81
2024/03/20 09:40:24;;;;;;;3.80;2.08;;;;;;;30.82;14.46;99146.19;4960309;28;20045;-82
2024/03/20 09:42:53;;;;;;;3.50;1.75;;;;;;;30.14;14.58;99153.88;4960861;28;20105;-80
2024/03/20 09:45:19;;;;;;;3.63;2.15;;;;;;;29.58;14.79;99148.78;4960200;28;20026;-82
2024/03/20 09:47:49;;;;;;;4.13;2.20;;;;;;;28.97;15.32;99137.28;4976493;28;20469;-82
2024/03/20 09:50:18;;;;;;;4.00;2.50;;;;;;;29.15;14.98;99139.09;4943966;28;20572;-80
2024/03/20 09:52:44;;;;;;;3.10;2.15;;;;;;;29.32;14.76;99127.69;4960255;28;20022;-80
2024/03/20 09:55:14;;;;;;;3.03;2.00;;;;;;;29.54;14.53;99128.81;4960403;28;20088;-81
2024/03/20 09:57:45;;;;;;;6.05;2.17;;;;;;;29.57;14.18;99139.09;4959909;28;20042;-81
2024/03/20 10:00:14;;;;;;;6.38;2.17;;;;;;;29.42;14.22;99134.16;4960688;28;20393;-81
2024/03/20 10:02:47;;;;;;;2.88;1.92;;;;;;;28.80;14.54;99126.34;4960372;28;20037;-82
2024/03/20 10:05:13;;;;;;;3.38;2.10;;;;;;;28.34;15.17;99138.44;4943667;28;20030;-81
2024/03/20 10:07:40;;;;;;;2.83;2.05;;;;;;;27.91;15.36;99120.44;4959213;28;20097;-82
2024/03/20 10:10:08;;;;;;;3.65;2.10;;;;;;;27.41;15.71;99121.28;4943925;28;20096;-81
2024/03/20 10:12:34;;;;;;;4.68;2.05;;;;;;;27.01;16.05;99137.56;4960499;28;20037;-81
2024/03/20 10:15:09;;;;;;;5.70;2.20;;;;;;;26.66;16.72;99136.09;4960314;28;20030;-83
2024/03/20 10:17:35;;;;;;;5.28;2.90;;;;;;;26.38;16.82;99130.16;4962303;28;20137;-81
2024/03/20 10:20:17;;;;;;;5.18;3.80;;;;;;;26.23;17.07;99127.75;4943670;28;20038;-81
2024/03/20 10:22:45;;;;;;;4.78;3.70;;;;;;;25.97;16.94;99127.59;4943478;28;20026;-82
2024/03/20 10:25:16;;;;;;;5.90;3.60;;;;;;;25.86;17.29;99127.38;4959879;28;20065;-80
2024/03/20 10:27:43;;;;;;;5.28;3.47;;;;;;;25.80;17.41;99124.47;4961373;28;20045;-82
2024/03/20 10:30:14;;;;;;;4.45;3.17;;;;;;;25.66;17.76;99122.03;4943805;28;20121;-80
2024/03/20 10:32:40;;;;;;;5.80;2.92;;;;;;;25.75;17.56;99112.78;4943477;28;20504;-81
2024/03/20 10:35:05;;;;;;;4.15;3.13;;;;;;;25.57;17.89;99105.34;4959796;28;20053;-83
2024/03/20 10:37:32;;;;;;;3.78;3.00;;;;;;;25.49;17.33;99106.38;4943917;28;20023;-82
2024/03/20 10:39:58;;;;;;;4.70;2.90;;;;;;;25.37;17.15;99102.69;4959161;28;20039;-83
2024/03/20 10:42:24;;;;;;;3.95;2.83;;;;;;;25.20;17.25;99115.56;4960285;28;20033;-81
2024/03/20 10:44:50;;;;;;;3.47;2.28;;;;;;;24.79;17.61;99103.16;4943653;28;20492;-83
2024/03/20 10:47:15;;;;;;;3.85;2.40;;;;;;;24.47;18.02;99108.13;4961750;28;20042;-83
2024/03/20 10:49:42;;;;;;;8.20;2.63;;;;;;;24.33;17.91;99105.38;4963544;28;20511;-83
2024/03/20 10:52:07;;;;;;;4.25;2.50;;;;;;;24.03;18.35;99094.13;4979993;28;20061;-82
2024/03/20 10:54:33;;;;;;;4.95;3.00;;;;;;;23.86;18.81;99106.94;4963738;28;20049;-82
2024/03/20 10:56:58;;;;;;;3.85;2.75;;;;;;;23.73;19.09;99101.50;4963729;28;20487;-81
2024/03/20 10:59:26;;;;;;;4.40;2.70;;;;;;;23.52;19.16;99099.69;4963679;28;20046;-82
2024/03/20 11:02:00;;;;;;;4.70;2.60;;;;;;;23.28;19.01;99102.53;4964192;28;20465;-83
2024/03/20 11:04:31;;;;;;;4.35;2.85;;;;;;;23.05;19.28;99092.03;4979608;28;20261;-82
2024/03/20 11:06:58;;;;;;;5.55;2.70;;;;;;;22.93;19.46;99102.38;4963347;28;20129;-81
2024/03/20 11:09:26;;;;;;;3.90;2.60;;;;;;;22.79;19.79;99091.75;4963388;28;20030;-81
2024/03/20 11:11:52;;;;;;;4.90;2.70;;;;;;;22.81;19.94;99095.88;4963782;28;20451;-82
2024/03/20 11:14:29;;;;;;;4.05;2.80;;;;;;;22.92;19.75;99084.75;4947385;28;20489;-79
2024/03/20 11:16:54;;;;;;;5.00;2.45;;;;;;;22.99;19.42;99090.13;4963749;28;20034;-80
2024/03/20 11:19:20;;;;;;;4.85;2.38;;;;;;;22.98;19.49;99091.16;4979159;28;20061;-82
2024/03/20 11:21:48;;;;;;;4.45;2.47;;;;;;;23.07;19.32;99076.72;4963246;28;20109;-80
2024/03/20 11:24:13;;;;;;;4.15;2.42;;;;;;;23.17;19.28;99070.28;4963193;28;20027;-84
2024/03/20 11:26:39;;;;;;;5.72;2.60;;;;;;;23.15;19.17;99080.28;4962998;28;20113;-80
2024/03/20 11:29:04;;;;;;;3.17;2.10;;;;;;;22.96;19.24;99063.88;4962549;28;20401;-81
2024/03/20 11:31:30;;;;;;;6.50;2.20;;;;;;;22.63;19.61;99082.16;4963305;28;20070;-80
2024/03/20 11:33:57;;;;;;;4.93;2.20;;;;;;;22.55;19.71;99083.91;4962834;28;20038;-82